Three Rivers, MA (01080)

8:04 AM EST on December 09, 2016 (GMT -0500)
Pathfinder School | | Change Station

Elev 331 ft 42.19 °N, 72.35 °W | Updated 1 second ago

Partly Cloudy
Partly Cloudy
30.6 °F
Feels Like 31 °F
N
3.0
Wind Variable Wind from West
Gusts 8.0 mph

Today
High -- | Low -- °F
--% Chance of Precip.
Yesterday
High -- | Low -- °F
Precip. -- in
Pressure 30.00 in
Visibility 10.0 miles
Clouds Few 4000 ft
Windchill 31 °F
Dew Point 17 °F
Humidity 57%
Rainfall 0.00 in
Snow Depth Not available.
7:06 AM 4:17 PM
Waxing Gibbous, 74% visible
METAR KCEF 091258Z 29015KT 10SM FEW040 M01/M10 A2997 RMK AO2A PK WND 32032/05 SLP157 T10121104 RVRNO $
Pressure 30.00 in
Visibility 10.0 miles
Clouds Few 4000 ft
Windchill 31 °F
Dew Point 17 °F
Humidity 57%
Rainfall 0.00 in
Snow Depth Not available.
7:06 AM 4:17 PM
Waxing Gibbous, 74% visible
METAR KCEF 091258Z 29015KT 10SM FEW040 M01/M10 A2997 RMK AO2A PK WND 32032/05 SLP157 T10121104 RVRNO $

10-Day Weather Forecast

Almanac

Astronomy

Dec. 09, 2016 Rise Set
Actual Time
Civil Twilight
Nautical Twilight
Astronomical Twilight
Moon
Length of Visible Light
Length of Day
Tomorrow will be .
, % of the Moon is Illuminated

Today's Extremes

State Highs State Lows

Community

WunderPhotos

Upload Photos

1,956,407 photos uploaded!

WunderBlog® & News

Nearby

Air Quality

  Air Quality AQ Index Pollutant
Not available.

Snow Depth

Station Depth Elevation

Earthquake Activity

City Distance Mag. Time & Date
Minimum magnitude displayed is 2.5.

Coastal Water Temperatures

Place Temperature

Stations

Nearby Weather Stations

Station Location Temp. Windchill Dew Point Humidity Wind Precip. Elev Updated Type
                   

Watches & Warnings

There are currently no watches in effect.